sensor_id;sensor_type;location;lat;lon;timestamp;temperature;humidity
25208;DHT22;13153;52.316;21.166;2023-04-25T00:02:21;15.10;99.90
25208;DHT22;13153;52.316;21.166;2023-04-25T00:04:47;15.10;99.90
25208;DHT22;13153;52.316;21.166;2023-04-25T00:07:14;15.10;99.90
25208;DHT22;13153;52.316;21.166;2023-04-25T00:09:41;15.00;99.90
25208;DHT22;13153;52.316;21.166;2023-04-25T00:12:07;15.00;99.90
25208;DHT22;13153;52.316;21.166;2023-04-25T00:14:34;15.00;99.90
25208;DHT22;13153;52.316;21.166;2023-04-25T00:17:01;14.90;99.90
25208;DHT22;13153;52.316;21.166;2023-04-25T00:19:28;14.80;99.90
25208;DHT22;13153;52.316;21.166;2023-04-25T00:21:56;14.80;99.90
25208;DHT22;13153;52.316;21.166;2023-04-25T00:24:23;14.80;99.90
25208;DHT22;13153;52.316;21.166;2023-04-25T00:26:48;14.80;99.90
25208;DHT22;13153;52.316;21.166;2023-04-25T00:29:14;14.70;99.90
25208;DHT22;13153;52.316;21.166;2023-04-25T00:31:40;14.70;99.90
25208;DHT22;13153;52.316;21.166;2023-04-25T00:34:06;14.70;99.90
25208;DHT22;13153;52.316;21.166;2023-04-25T00:36:34;14.60;99.90
25208;DHT22;13153;52.316;21.166;2023-04-25T00:38:59;14.60;99.90
25208;DHT22;13153;52.316;21.166;2023-04-25T00:41:26;14.60;99.90
25208;DHT22;13153;52.316;21.166;2023-04-25T00:43:54;14.60;99.90
25208;DHT22;13153;52.316;21.166;2023-04-25T00:46:21;14.60;99.90
25208;DHT22;13153;52.316;21.166;2023-04-25T00:48:47;14.50;99.90
25208;DHT22;13153;52.316;21.166;2023-04-25T00:51:20;14.50;99.90
25208;DHT22;13153;52.316;21.166;2023-04-25T00:53:48;14.40;99.90
25208;DHT22;13153;52.316;21.166;2023-04-25T00:56:15;14.40;99.90
25208;DHT22;13153;52.316;21.166;2023-04-25T00:58:42;14.30;99.90
25208;DHT22;13153;52.316;21.166;2023-04-25T01:01:10;14.30;99.90
25208;DHT22;13153;52.316;21.166;2023-04-25T01:03:38;14.20;99.90
25208;DHT22;13153;52.316;21.166;2023-04-25T01:06:09;14.20;99.90
25208;DHT22;13153;52.316;21.166;2023-04-25T01:08:37;14.20;99.90
25208;DHT22;13153;52.316;21.166;2023-04-25T01:11:04;14.20;99.90
25208;DHT22;13153;52.316;21.166;2023-04-25T01:13:31;14.20;99.90
25208;DHT22;13153;52.316;21.166;2023-04-25T01:15:58;14.20;99.90
25208;DHT22;13153;52.316;21.166;2023-04-25T01:18:25;14.20;99.90
25208;DHT22;13153;52.316;21.166;2023-04-25T01:20:52;14.10;99.90
25208;DHT22;13153;52.316;21.166;2023-04-25T01:23:20;14.10;99.90
25208;DHT22;13153;52.316;21.166;2023-04-25T01:25:48;14.10;99.90
25208;DHT22;13153;52.316;21.166;2023-04-25T01:28:14;14.10;99.90
25208;DHT22;13153;52.316;21.166;2023-04-25T01:30:41;14.00;99.90
25208;DHT22;13153;52.316;21.166;2023-04-25T01:33:08;14.00;99.90
25208;DHT22;13153;52.316;21.166;2023-04-25T01:35:34;14.00;99.90
25208;DHT22;13153;52.316;21.166;2023-04-25T01:38:00;13.90;99.90
25208;DHT22;13153;52.316;21.166;2023-04-25T01:40:27;13.90;99.90
25208;DHT22;13153;52.316;21.166;2023-04-25T01:42:54;13.90;99.90
25208;DHT22;13153;52.316;21.166;2023-04-25T01:45:20;13.90;99.90
25208;DHT22;13153;52.316;21.166;2023-04-25T01:47:46;13.80;99.90
25208;DHT22;13153;52.316;21.166;2023-04-25T01:50:16;13.80;99.90
25208;DHT22;13153;52.316;21.166;2023-04-25T01:52:43;13.80;99.90
25208;DHT22;13153;52.316;21.166;2023-04-25T01:55:10;13.70;99.90
25208;DHT22;13153;52.316;21.166;2023-04-25T01:57:37;13.70;99.90
25208;DHT22;13153;52.316;21.166;2023-04-25T02:00:05;13.70;99.90
25208;DHT22;13153;52.316;21.166;2023-04-25T02:02:32;13.70;99.90
25208;DHT22;13153;52.316;21.166;2023-04-25T02:04:58;13.60;99.90
25208;DHT22;13153;52.316;21.166;2023-04-25T02:07:23;13.60;99.90
25208;DHT22;13153;52.316;21.166;2023-04-25T02:09:49;13.60;99.90
25208;DHT22;13153;52.316;21.166;2023-04-25T02:12:15;13.60;99.90
25208;DHT22;13153;52.316;21.166;2023-04-25T02:14:41;13.60;99.90
25208;DHT22;13153;52.316;21.166;2023-04-25T02:17:07;13.60;99.90
25208;DHT22;13153;52.316;21.166;2023-04-25T02:19:32;13.60;99.90
25208;DHT22;13153;52.316;21.166;2023-04-25T02:21:58;13.60;99.90
25208;DHT22;13153;52.316;21.166;2023-04-25T02:24:24;13.60;99.90
25208;DHT22;13153;52.316;21.166;2023-04-25T02:26:50;13.60;99.90
25208;DHT22;13153;52.316;21.166;2023-04-25T02:29:16;13.60;99.90
25208;DHT22;13153;52.316;21.166;2023-04-25T02:31:42;13.60;99.90
25208;DHT22;13153;52.316;21.166;2023-04-25T02:34:08;13.60;99.90
25208;DHT22;13153;52.316;21.166;2023-04-25T02:36:33;13.60;99.90
25208;DHT22;13153;52.316;21.166;2023-04-25T02:39:01;13.60;99.90
25208;DHT22;13153;52.316;21.166;2023-04-25T02:41:27;13.60;99.90
25208;DHT22;13153;52.316;21.166;2023-04-25T02:43:52;13.60;99.90
25208;DHT22;13153;52.316;21.166;2023-04-25T02:46:18;13.60;99.90
25208;DHT22;13153;52.316;21.166;2023-04-25T02:48:44;13.60;99.90
25208;DHT22;13153;52.316;21.166;2023-04-25T02:51:10;13.60;99.90
25208;DHT22;13153;52.316;21.166;2023-04-25T02:53:36;13.60;99.90
25208;DHT22;13153;52.316;21.166;2023-04-25T02:56:01;13.50;99.90
25208;DHT22;13153;52.316;21.166;2023-04-25T02:58:27;13.60;99.90
25208;DHT22;13153;52.316;21.166;2023-04-25T03:00:53;13.50;99.90
25208;DHT22;13153;52.316;21.166;2023-04-25T03:03:20;13.50;99.90
25208;DHT22;13153;52.316;21.166;2023-04-25T03:05:50;13.50;99.90
25208;DHT22;13153;52.316;21.166;2023-04-25T03:08:18;13.50;99.90
25208;DHT22;13153;52.316;21.166;2023-04-25T03:10:44;13.60;99.90
25208;DHT22;13153;52.316;21.166;2023-04-25T03:13:10;13.60;99.90
25208;DHT22;13153;52.316;21.166;2023-04-25T03:15:37;13.50;99.90
25208;DHT22;13153;52.316;21.166;2023-04-25T03:18:03;13.60;99.90
25208;DHT22;13153;52.316;21.166;2023-04-25T03:20:29;13.60;99.90
25208;DHT22;13153;52.316;21.166;2023-04-25T03:22:56;13.60;99.90
25208;DHT22;13153;52.316;21.166;2023-04-25T03:25:22;13.60;99.90
25208;DHT22;13153;52.316;21.166;2023-04-25T03:27:47;13.60;99.90
25208;DHT22;13153;52.316;21.166;2023-04-25T03:30:13;13.60;99.90
25208;DHT22;13153;52.316;21.166;2023-04-25T03:32:39;13.60;99.90
25208;DHT22;13153;52.316;21.166;2023-04-25T03:35:05;13.60;99.90
25208;DHT22;13153;52.316;21.166;2023-04-25T03:37:31;13.60;99.90
25208;DHT22;13153;52.316;21.166;2023-04-25T03:39:56;13.60;99.90
25208;DHT22;13153;52.316;21.166;2023-04-25T03:42:22;13.60;99.90
25208;DHT22;13153;52.316;21.166;2023-04-25T03:44:49;13.60;99.90
25208;DHT22;13153;52.316;21.166;2023-04-25T03:47:15;13.70;99.90
25208;DHT22;13153;52.316;21.166;2023-04-25T03:49:41;13.70;99.90
25208;DHT22;13153;52.316;21.166;2023-04-25T03:52:07;13.70;99.90
25208;DHT22;13153;52.316;21.166;2023-04-25T03:54:33;13.80;99.90
25208;DHT22;13153;52.316;21.166;2023-04-25T03:56:59;13.90;99.90
25208;DHT22;13153;52.316;21.166;2023-04-25T03:59:25;14.00;99.90
25208;DHT22;13153;52.316;21.166;2023-04-25T04:01:51;14.10;99.90
25208;DHT22;13153;52.316;21.166;2023-04-25T04:04:18;14.20;99.90
25208;DHT22;13153;52.316;21.166;2023-04-25T04:06:43;14.40;99.90
25208;DHT22;13153;52.316;21.166;2023-04-25T04:09:10;14.50;99.90
25208;DHT22;13153;52.316;21.166;2023-04-25T04:11:37;14.60;99.90
25208;DHT22;13153;52.316;21.166;2023-04-25T04:14:05;14.70;99.90
25208;DHT22;13153;52.316;21.166;2023-04-25T04:16:32;14.70;99.90
25208;DHT22;13153;52.316;21.166;2023-04-25T04:18:58;14.70;99.90
25208;DHT22;13153;52.316;21.166;2023-04-25T04:21:23;14.70;99.90
25208;DHT22;13153;52.316;21.166;2023-04-25T04:23:49;14.70;99.90
25208;DHT22;13153;52.316;21.166;2023-04-25T04:26:15;14.60;99.90
25208;DHT22;13153;52.316;21.166;2023-04-25T04:28:44;14.60;99.90
25208;DHT22;13153;52.316;21.166;2023-04-25T04:31:12;14.50;99.90
25208;DHT22;13153;52.316;21.166;2023-04-25T04:33:40;14.50;99.90
25208;DHT22;13153;52.316;21.166;2023-04-25T04:36:06;14.50;99.90
25208;DHT22;13153;52.316;21.166;2023-04-25T04:38:33;14.50;99.90
25208;DHT22;13153;52.316;21.166;2023-04-25T04:40:59;14.50;99.90
25208;DHT22;13153;52.316;21.166;2023-04-25T04:43:24;14.40;99.90
25208;DHT22;13153;52.316;21.166;2023-04-25T04:45:50;14.40;99.90
25208;DHT22;13153;52.316;21.166;2023-04-25T04:48:16;14.40;99.90
25208;DHT22;13153;52.316;21.166;2023-04-25T04:50:45;14.40;99.90
25208;DHT22;13153;52.316;21.166;2023-04-25T04:53:11;14.40;99.90
25208;DHT22;13153;52.316;21.166;2023-04-25T04:55:37;14.40;99.90
25208;DHT22;13153;52.316;21.166;2023-04-25T04:58:03;14.40;99.90
25208;DHT22;13153;52.316;21.166;2023-04-25T05:00:29;14.40;99.90
25208;DHT22;13153;52.316;21.166;2023-04-25T05:02:55;14.40;99.90
25208;DHT22;13153;52.316;21.166;2023-04-25T05:05:21;14.40;99.90
25208;DHT22;13153;52.316;21.166;2023-04-25T05:07:47;14.40;99.90
25208;DHT22;13153;52.316;21.166;2023-04-25T05:10:13;14.50;99.90
25208;DHT22;13153;52.316;21.166;2023-04-25T05:12:39;14.50;99.90
25208;DHT22;13153;52.316;21.166;2023-04-25T05:15:05;14.60;99.90
25208;DHT22;13153;52.316;21.166;2023-04-25T05:17:31;14.50;99.90
25208;DHT22;13153;52.316;21.166;2023-04-25T05:19:58;14.50;99.90
25208;DHT22;13153;52.316;21.166;2023-04-25T05:22:24;14.50;99.90
25208;DHT22;13153;52.316;21.166;2023-04-25T05:24:50;14.60;99.90
25208;DHT22;13153;52.316;21.166;2023-04-25T05:27:17;14.60;99.90
25208;DHT22;13153;52.316;21.166;2023-04-25T05:29:44;14.70;99.90
25208;DHT22;13153;52.316;21.166;2023-04-25T05:32:10;14.70;99.90
25208;DHT22;13153;52.316;21.166;2023-04-25T05:34:36;14.80;99.90
25208;DHT22;13153;52.316;21.166;2023-04-25T05:37:02;14.80;99.90
25208;DHT22;13153;52.316;21.166;2023-04-25T05:39:28;14.80;99.90
25208;DHT22;13153;52.316;21.166;2023-04-25T05:41:54;14.80;99.90
25208;DHT22;13153;52.316;21.166;2023-04-25T05:44:21;14.90;99.90
25208;DHT22;13153;52.316;21.166;2023-04-25T05:46:47;14.90;99.90
25208;DHT22;13153;52.316;21.166;2023-04-25T05:49:12;14.90;99.90
25208;DHT22;13153;52.316;21.166;2023-04-25T05:51:38;15.00;99.90
25208;DHT22;13153;52.316;21.166;2023-04-25T05:54:04;15.00;99.90
25208;DHT22;13153;52.316;21.166;2023-04-25T05:56:30;15.00;99.90
25208;DHT22;13153;52.316;21.166;2023-04-25T05:58:56;15.00;99.90
25208;DHT22;13153;52.316;21.166;2023-04-25T06:01:22;14.90;99.90
25208;DHT22;13153;52.316;21.166;2023-04-25T06:03:48;14.90;99.90
25208;DHT22;13153;52.316;21.166;2023-04-25T06:06:14;14.90;99.90
25208;DHT22;13153;52.316;21.166;2023-04-25T06:08:40;14.90;99.90
25208;DHT22;13153;52.316;21.166;2023-04-25T06:11:06;14.90;99.90
25208;DHT22;13153;52.316;21.166;2023-04-25T06:13:32;14.90;99.90
25208;DHT22;13153;52.316;21.166;2023-04-25T06:15:58;14.90;99.90
25208;DHT22;13153;52.316;21.166;2023-04-25T06:18:24;14.80;99.90
25208;DHT22;13153;52.316;21.166;2023-04-25T06:20:50;14.80;99.90
25208;DHT22;13153;52.316;21.166;2023-04-25T06:23:16;14.80;99.90
25208;DHT22;13153;52.316;21.166;2023-04-25T06:25:41;14.80;99.90
25208;DHT22;13153;52.316;21.166;2023-04-25T06:28:07;14.70;99.90
25208;DHT22;13153;52.316;21.166;2023-04-25T06:30:33;14.70;99.90
25208;DHT22;13153;52.316;21.166;2023-04-25T06:32:59;14.70;99.90
25208;DHT22;13153;52.316;21.166;2023-04-25T06:35:25;14.70;99.90
25208;DHT22;13153;52.316;21.166;2023-04-25T06:37:51;14.70;99.90
25208;DHT22;13153;52.316;21.166;2023-04-25T06:40:17;14.60;99.90
25208;DHT22;13153;52.316;21.166;2023-04-25T06:42:43;14.70;99.90
25208;DHT22;13153;52.316;21.166;2023-04-25T06:45:09;14.60;99.90
25208;DHT22;13153;52.316;21.166;2023-04-25T06:47:35;14.60;99.90
25208;DHT22;13153;52.316;21.166;2023-04-25T06:50:01;14.50;99.90
25208;DHT22;13153;52.316;21.166;2023-04-25T06:52:26;14.50;99.90
25208;DHT22;13153;52.316;21.166;2023-04-25T06:54:52;14.50;99.90
25208;DHT22;13153;52.316;21.166;2023-04-25T06:57:18;14.40;99.90
25208;DHT22;13153;52.316;21.166;2023-04-25T06:59:44;14.40;99.90
25208;DHT22;13153;52.316;21.166;2023-04-25T07:02:09;14.20;99.90
25208;DHT22;13153;52.316;21.166;2023-04-25T07:04:35;14.10;99.90
25208;DHT22;13153;52.316;21.166;2023-04-25T07:07:01;14.00;99.90
25208;DHT22;13153;52.316;21.166;2023-04-25T07:09:28;13.90;99.90
25208;DHT22;13153;52.316;21.166;2023-04-25T07:11:55;13.80;99.90
25208;DHT22;13153;52.316;21.166;2023-04-25T07:14:22;13.80;99.90
25208;DHT22;13153;52.316;21.166;2023-04-25T07:16:47;13.90;99.90
25208;DHT22;13153;52.316;21.166;2023-04-25T07:19:13;13.90;99.90
25208;DHT22;13153;52.316;21.166;2023-04-25T07:21:39;14.00;99.90
25208;DHT22;13153;52.316;21.166;2023-04-25T07:24:05;14.10;99.90
25208;DHT22;13153;52.316;21.166;2023-04-25T07:26:31;14.20;99.90
25208;DHT22;13153;52.316;21.166;2023-04-25T07:28:57;14.30;99.90
25208;DHT22;13153;52.316;21.166;2023-04-25T07:31:23;14.40;99.90
25208;DHT22;13153;52.316;21.166;2023-04-25T07:33:49;14.50;99.90
25208;DHT22;13153;52.316;21.166;2023-04-25T07:36:14;14.50;99.90
25208;DHT22;13153;52.316;21.166;2023-04-25T07:38:41;14.50;99.90
25208;DHT22;13153;52.316;21.166;2023-04-25T07:41:07;14.50;99.90
25208;DHT22;13153;52.316;21.166;2023-04-25T07:43:33;14.50;99.90
25208;DHT22;13153;52.316;21.166;2023-04-25T07:45:58;14.60;99.90
25208;DHT22;13153;52.316;21.166;2023-04-25T07:48:24;14.60;99.90
25208;DHT22;13153;52.316;21.166;2023-04-25T07:50:50;14.60;99.90
25208;DHT22;13153;52.316;21.166;2023-04-25T07:53:16;14.70;99.90
25208;DHT22;13153;52.316;21.166;2023-04-25T07:55:43;14.80;99.90
25208;DHT22;13153;52.316;21.166;2023-04-25T07:58:10;14.70;99.90
25208;DHT22;13153;52.316;21.166;2023-04-25T08:00:36;14.70;99.90
25208;DHT22;13153;52.316;21.166;2023-04-25T08:03:03;14.70;99.90
25208;DHT22;13153;52.316;21.166;2023-04-25T08:05:29;14.80;99.90
25208;DHT22;13153;52.316;21.166;2023-04-25T08:07:55;14.80;99.90
25208;DHT22;13153;52.316;21.166;2023-04-25T08:10:22;14.80;99.90
25208;DHT22;13153;52.316;21.166;2023-04-25T08:12:48;14.80;99.90
25208;DHT22;13153;52.316;21.166;2023-04-25T08:15:14;14.90;99.90
25208;DHT22;13153;52.316;21.166;2023-04-25T08:17:40;14.90;99.90
25208;DHT22;13153;52.316;21.166;2023-04-25T08:20:07;15.00;99.90
25208;DHT22;13153;52.316;21.166;2023-04-25T08:22:32;15.10;99.90
25208;DHT22;13153;52.316;21.166;2023-04-25T08:24:59;15.20;99.90
25208;DHT22;13153;52.316;21.166;2023-04-25T08:27:25;15.30;99.90
25208;DHT22;13153;52.316;21.166;2023-04-25T08:29:51;15.30;99.90
25208;DHT22;13153;52.316;21.166;2023-04-25T08:32:17;15.30;99.90
25208;DHT22;13153;52.316;21.166;2023-04-25T08:34:43;15.20;99.90
25208;DHT22;13153;52.316;21.166;2023-04-25T08:37:09;15.10;99.90
25208;DHT22;13153;52.316;21.166;2023-04-25T08:39:36;15.10;99.90
25208;DHT22;13153;52.316;21.166;2023-04-25T08:42:06;15.00;99.90
25208;DHT22;13153;52.316;21.166;2023-04-25T08:44:36;15.00;99.90
25208;DHT22;13153;52.316;21.166;2023-04-25T08:47:05;15.10;99.90
25208;DHT22;13153;52.316;21.166;2023-04-25T08:49:34;15.10;99.90
25208;DHT22;13153;52.316;21.166;2023-04-25T08:52:03;15.10;99.90
25208;DHT22;13153;52.316;21.166;2023-04-25T08:54:32;15.10;99.90
25208;DHT22;13153;52.316;21.166;2023-04-25T08:57:01;15.00;99.90
25208;DHT22;13153;52.316;21.166;2023-04-25T08:59:30;14.90;99.90
25208;DHT22;13153;52.316;21.166;2023-04-25T09:01:57;14.70;99.90
25208;DHT22;13153;52.316;21.166;2023-04-25T09:04:23;14.70;99.90
25208;DHT22;13153;52.316;21.166;2023-04-25T09:06:48;14.60;99.90
25208;DHT22;13153;52.316;21.166;2023-04-25T09:09:14;14.50;99.90
25208;DHT22;13153;52.316;21.166;2023-04-25T09:11:41;14.50;99.90
25208;DHT22;13153;52.316;21.166;2023-04-25T09:17:12;14.70;99.90
25208;DHT22;13153;52.316;21.166;2023-04-25T09:19:39;14.90;99.90
25208;DHT22;13153;52.316;21.166;2023-04-25T09:22:06;15.00;99.90
25208;DHT22;13153;52.316;21.166;2023-04-25T09:24:38;15.10;99.90
25208;DHT22;13153;52.316;21.166;2023-04-25T09:27:10;15.10;99.90
25208;DHT22;13153;52.316;21.166;2023-04-25T09:29:39;15.00;99.90
25208;DHT22;13153;52.316;21.166;2023-04-25T09:32:20;14.80;99.90
25208;DHT22;13153;52.316;21.166;2023-04-25T09:37:19;14.60;99.90
25208;DHT22;13153;52.316;21.166;2023-04-25T09:39:48;14.50;99.90
25208;DHT22;13153;52.316;21.166;2023-04-25T09:42:16;14.40;99.90
25208;DHT22;13153;52.316;21.166;2023-04-25T09:44:45;14.30;99.90
25208;DHT22;13153;52.316;21.166;2023-04-25T09:47:15;14.20;99.90
25208;DHT22;13153;52.316;21.166;2023-04-25T09:49:46;14.10;99.90
25208;DHT22;13153;52.316;21.166;2023-04-25T09:52:19;14.10;99.90
25208;DHT22;13153;52.316;21.166;2023-04-25T09:54:47;14.10;99.90
25208;DHT22;13153;52.316;21.166;2023-04-25T09:57:16;14.10;99.90
25208;DHT22;13153;52.316;21.166;2023-04-25T09:59:54;14.10;99.90
25208;DHT22;13153;52.316;21.166;2023-04-25T10:02:25;14.00;99.90
25208;DHT22;13153;52.316;21.166;2023-04-25T10:04:54;14.00;99.90
25208;DHT22;13153;52.316;21.166;2023-04-25T10:07:22;13.90;99.90
25208;DHT22;13153;52.316;21.166;2023-04-25T10:10:03;13.80;99.90
25208;DHT22;13153;52.316;21.166;2023-04-25T10:12:31;13.80;99.90
25208;DHT22;13153;52.316;21.166;2023-04-25T10:14:59;13.80;99.90
25208;DHT22;13153;52.316;21.166;2023-04-25T10:17:29;13.80;99.90
25208;DHT22;13153;52.316;21.166;2023-04-25T10:19:56;13.80;99.90
25208;DHT22;13153;52.316;21.166;2023-04-25T10:22:29;13.80;99.90
25208;DHT22;13153;52.316;21.166;2023-04-25T10:25:08;13.90;99.90
25208;DHT22;13153;52.316;21.166;2023-04-25T10:27:35;14.00;99.90
25208;DHT22;13153;52.316;21.166;2023-04-25T10:30:07;14.10;99.90
25208;DHT22;13153;52.316;21.166;2023-04-25T10:32:36;14.20;99.90
25208;DHT22;13153;52.316;21.166;2023-04-25T10:35:23;14.20;99.90
25208;DHT22;13153;52.316;21.166;2023-04-25T10:38:04;14.30;99.90
25208;DHT22;13153;52.316;21.166;2023-04-25T10:40:39;14.30;99.90
25208;DHT22;13153;52.316;21.166;2023-04-25T10:45:56;14.30;99.90
25208;DHT22;13153;52.316;21.166;2023-04-25T10:48:26;14.40;99.90
25208;DHT22;13153;52.316;21.166;2023-04-25T10:51:10;14.40;99.90
25208;DHT22;13153;52.316;21.166;2023-04-25T10:53:37;14.50;99.90
25208;DHT22;13153;52.316;21.166;2023-04-25T10:56:22;14.50;99.90
25208;DHT22;13153;52.316;21.166;2023-04-25T10:58:50;14.50;99.90
25208;DHT22;13153;52.316;21.166;2023-04-25T11:01:21;14.40;99.90
25208;DHT22;13153;52.316;21.166;2023-04-25T11:03:57;14.30;99.90
25208;DHT22;13153;52.316;21.166;2023-04-25T11:09:28;14.20;99.90
25208;DHT22;13153;52.316;21.166;2023-04-25T11:11:55;14.20;99.90
25208;DHT22;13153;52.316;21.166;2023-04-25T11:14:22;14.20;99.90
25208;DHT22;13153;52.316;21.166;2023-04-25T11:16:53;14.10;99.90
25208;DHT22;13153;52.316;21.166;2023-04-25T11:19:21;14.10;99.90
25208;DHT22;13153;52.316;21.166;2023-04-25T11:21:48;14.10;99.90
25208;DHT22;13153;52.316;21.166;2023-04-25T11:24:13;14.10;99.90
25208;DHT22;13153;52.316;21.166;2023-04-25T11:26:42;14.00;99.90
25208;DHT22;13153;52.316;21.166;2023-04-25T11:29:08;14.00;99.90
25208;DHT22;13153;52.316;21.166;2023-04-25T11:31:34;14.00;99.90
25208;DHT22;13153;52.316;21.166;2023-04-25T11:34:00;14.00;99.90
25208;DHT22;13153;52.316;21.166;2023-04-25T11:36:26;14.00;99.90
25208;DHT22;13153;52.316;21.166;2023-04-25T11:38:53;14.00;99.90
25208;DHT22;13153;52.316;21.166;2023-04-25T11:41:22;14.10;99.90
25208;DHT22;13153;52.316;21.166;2023-04-25T11:43:48;14.10;99.90
25208;DHT22;13153;52.316;21.166;2023-04-25T11:46:15;14.10;99.90
25208;DHT22;13153;52.316;21.166;2023-04-25T11:48:42;14.10;99.90
25208;DHT22;13153;52.316;21.166;2023-04-25T11:51:08;14.10;99.90
25208;DHT22;13153;52.316;21.166;2023-04-25T11:53:34;14.20;99.90
25208;DHT22;13153;52.316;21.166;2023-04-25T11:56:01;14.20;99.90
25208;DHT22;13153;52.316;21.166;2023-04-25T11:58:54;14.20;99.90
25208;DHT22;13153;52.316;21.166;2023-04-25T12:01:40;14.20;99.90
25208;DHT22;13153;52.316;21.166;2023-04-25T12:06:41;14.20;99.90
25208;DHT22;13153;52.316;21.166;2023-04-25T12:09:10;14.20;99.90
25208;DHT22;13153;52.316;21.166;2023-04-25T12:14:30;14.20;99.90
25208;DHT22;13153;52.316;21.166;2023-04-25T12:17:00;14.20;99.90
25208;DHT22;13153;52.316;21.166;2023-04-25T12:19:32;14.20;99.90
25208;DHT22;13153;52.316;21.166;2023-04-25T12:22:01;14.20;99.90
25208;DHT22;13153;52.316;21.166;2023-04-25T12:24:33;14.20;99.90
25208;DHT22;13153;52.316;21.166;2023-04-25T12:27:01;14.20;99.90
25208;DHT22;13153;52.316;21.166;2023-04-25T12:29:31;14.20;99.90
25208;DHT22;13153;52.316;21.166;2023-04-25T12:31:58;14.20;99.90
25208;DHT22;13153;52.316;21.166;2023-04-25T12:34:25;14.20;99.90
25208;DHT22;13153;52.316;21.166;2023-04-25T12:36:52;14.10;99.90
25208;DHT22;13153;52.316;21.166;2023-04-25T12:39:23;14.20;99.90
25208;DHT22;13153;52.316;21.166;2023-04-25T12:41:51;14.20;99.90
25208;DHT22;13153;52.316;21.166;2023-04-25T12:44:20;14.20;99.90
25208;DHT22;13153;52.316;21.166;2023-04-25T12:46:47;14.20;99.90
25208;DHT22;13153;52.316;21.166;2023-04-25T12:49:13;14.20;99.90
25208;DHT22;13153;52.316;21.166;2023-04-25T12:51:40;14.30;99.90
25208;DHT22;13153;52.316;21.166;2023-04-25T12:54:07;14.30;99.90
25208;DHT22;13153;52.316;21.166;2023-04-25T12:56:34;14.30;99.90
25208;DHT22;13153;52.316;21.166;2023-04-25T12:59:01;14.30;99.90
25208;DHT22;13153;52.316;21.166;2023-04-25T13:01:28;14.30;99.90
25208;DHT22;13153;52.316;21.166;2023-04-25T13:03:55;14.30;99.90
25208;DHT22;13153;52.316;21.166;2023-04-25T13:06:21;14.20;99.90
25208;DHT22;13153;52.316;21.166;2023-04-25T13:08:48;14.10;99.90
25208;DHT22;13153;52.316;21.166;2023-04-25T13:11:14;14.10;99.90
25208;DHT22;13153;52.316;21.166;2023-04-25T13:13:43;14.10;99.90
25208;DHT22;13153;52.316;21.166;2023-04-25T13:16:10;14.20;99.90
25208;DHT22;13153;52.316;21.166;2023-04-25T13:18:36;14.30;99.90
25208;DHT22;13153;52.316;21.166;2023-04-25T13:21:02;14.40;99.90
25208;DHT22;13153;52.316;21.166;2023-04-25T13:23:29;14.40;99.90
25208;DHT22;13153;52.316;21.166;2023-04-25T13:25:56;14.50;99.90
25208;DHT22;13153;52.316;21.166;2023-04-25T13:28:27;14.50;99.90
25208;DHT22;13153;52.316;21.166;2023-04-25T13:30:53;14.60;99.90
25208;DHT22;13153;52.316;21.166;2023-04-25T13:33:20;14.70;99.90
25208;DHT22;13153;52.316;21.166;2023-04-25T13:35:47;14.70;99.90
25208;DHT22;13153;52.316;21.166;2023-04-25T13:38:24;14.70;99.90
25208;DHT22;13153;52.316;21.166;2023-04-25T13:40:51;14.70;99.90
25208;DHT22;13153;52.316;21.166;2023-04-25T13:43:19;14.70;99.90
25208;DHT22;13153;52.316;21.166;2023-04-25T13:45:47;14.70;99.90
25208;DHT22;13153;52.316;21.166;2023-04-25T13:48:14;14.80;99.90
25208;DHT22;13153;52.316;21.166;2023-04-25T13:50:39;14.80;99.90
25208;DHT22;13153;52.316;21.166;2023-04-25T13:53:05;14.70;99.90
25208;DHT22;13153;52.316;21.166;2023-04-25T13:55:31;14.60;99.90
25208;DHT22;13153;52.316;21.166;2023-04-25T13:57:57;14.60;99.90
25208;DHT22;13153;52.316;21.166;2023-04-25T14:00:23;14.50;99.90
25208;DHT22;13153;52.316;21.166;2023-04-25T14:02:48;14.40;99.90
25208;DHT22;13153;52.316;21.166;2023-04-25T14:05:15;14.40;99.90
25208;DHT22;13153;52.316;21.166;2023-04-25T14:07:41;14.40;99.90
25208;DHT22;13153;52.316;21.166;2023-04-25T14:10:07;14.40;99.90
25208;DHT22;13153;52.316;21.166;2023-04-25T14:12:33;14.30;99.90
25208;DHT22;13153;52.316;21.166;2023-04-25T14:14:59;14.30;99.90
25208;DHT22;13153;52.316;21.166;2023-04-25T14:17:25;14.20;99.90
25208;DHT22;13153;52.316;21.166;2023-04-25T14:19:51;14.20;99.90
25208;DHT22;13153;52.316;21.166;2023-04-25T14:22:16;14.20;99.90
25208;DHT22;13153;52.316;21.166;2023-04-25T14:24:42;14.20;99.90
25208;DHT22;13153;52.316;21.166;2023-04-25T14:27:08;14.20;99.90
25208;DHT22;13153;52.316;21.166;2023-04-25T14:29:34;14.30;99.90
25208;DHT22;13153;52.316;21.166;2023-04-25T14:32:00;14.30;99.90
25208;DHT22;13153;52.316;21.166;2023-04-25T14:34:27;14.40;99.90
25208;DHT22;13153;52.316;21.166;2023-04-25T14:36:53;14.40;99.90
25208;DHT22;13153;52.316;21.166;2023-04-25T14:39:19;14.40;99.90
25208;DHT22;13153;52.316;21.166;2023-04-25T14:41:45;14.30;99.90
25208;DHT22;13153;52.316;21.166;2023-04-25T14:44:11;14.30;99.90
25208;DHT22;13153;52.316;21.166;2023-04-25T14:46:37;14.30;99.90
25208;DHT22;13153;52.316;21.166;2023-04-25T14:49:03;14.30;99.90
25208;DHT22;13153;52.316;21.166;2023-04-25T14:51:29;14.20;99.90
25208;DHT22;13153;52.316;21.166;2023-04-25T14:53:56;14.20;99.90
25208;DHT22;13153;52.316;21.166;2023-04-25T14:56:23;14.20;99.90
25208;DHT22;13153;52.316;21.166;2023-04-25T14:58:49;14.10;99.90
25208;DHT22;13153;52.316;21.166;2023-04-25T15:01:15;14.00;99.90
25208;DHT22;13153;52.316;21.166;2023-04-25T15:03:41;14.00;99.90
25208;DHT22;13153;52.316;21.166;2023-04-25T15:06:07;13.90;99.90
25208;DHT22;13153;52.316;21.166;2023-04-25T15:08:33;13.90;99.90
25208;DHT22;13153;52.316;21.166;2023-04-25T15:10:59;14.00;99.90
25208;DHT22;13153;52.316;21.166;2023-04-25T15:13:26;13.90;99.90
25208;DHT22;13153;52.316;21.166;2023-04-25T15:15:52;13.90;99.90
25208;DHT22;13153;52.316;21.166;2023-04-25T15:18:21;13.90;99.90
25208;DHT22;13153;52.316;21.166;2023-04-25T15:20:48;13.90;99.90
25208;DHT22;13153;52.316;21.166;2023-04-25T15:23:17;13.80;99.90
25208;DHT22;13153;52.316;21.166;2023-04-25T15:25:44;13.90;99.90
25208;DHT22;13153;52.316;21.166;2023-04-25T15:28:10;13.90;99.90
25208;DHT22;13153;52.316;21.166;2023-04-25T15:30:36;13.80;99.90
25208;DHT22;13153;52.316;21.166;2023-04-25T15:33:02;13.80;99.90